sensor_id;sensor_type;location;lat;lon;timestamp;pressure;altitude;pressure_sealevel;temperature;humidity
17438;BME280;72029;52.198;5.422;2023-08-30T00:00:12;100756.34;;;14.22;76.89
17438;BME280;72029;52.198;5.422;2023-08-30T00:02:45;100751.44;;;14.10;77.36
17438;BME280;72029;52.198;5.422;2023-08-30T00:05:15;100744.44;;;14.09;77.55
17438;BME280;72029;52.198;5.422;2023-08-30T00:07:44;100750.81;;;13.80;78.68
17438;BME280;72029;52.198;5.422;2023-08-30T00:10:13;100751.50;;;13.82;78.67
17438;BME280;72029;52.198;5.422;2023-08-30T00:12:42;100738.13;;;13.74;79.01
17438;BME280;72029;52.198;5.422;2023-08-30T00:15:11;100728.00;;;13.60;79.73
17438;BME280;72029;52.198;5.422;2023-08-30T00:17:40;100732.34;;;13.79;79.29
17438;BME280;72029;52.198;5.422;2023-08-30T00:20:12;100730.91;;;13.84;79.03
17438;BME280;72029;52.198;5.422;2023-08-30T00:22:40;100732.88;;;13.82;79.15
17438;BME280;72029;52.198;5.422;2023-08-30T00:25:09;100723.81;;;13.75;78.97
17438;BME280;72029;52.198;5.422;2023-08-30T00:27:38;100724.81;;;13.74;79.25
17438;BME280;72029;52.198;5.422;2023-08-30T00:30:09;100727.31;;;13.58;79.94
17438;BME280;72029;52.198;5.422;2023-08-30T00:32:39;100723.97;;;13.56;80.29
17438;BME280;72029;52.198;5.422;2023-08-30T00:35:11;100716.81;;;13.57;80.30
17438;BME280;72029;52.198;5.422;2023-08-30T00:37:40;100721.31;;;13.56;80.60
17438;BME280;72029;52.198;5.422;2023-08-30T00:40:10;100719.19;;;13.60;80.32
17438;BME280;72029;52.198;5.422;2023-08-30T00:42:39;100717.06;;;13.63;80.08
17438;BME280;72029;52.198;5.422;2023-08-30T00:45:09;100713.69;;;13.61;80.40
17438;BME280;72029;52.198;5.422;2023-08-30T00:47:38;100702.28;;;13.51;80.51
17438;BME280;72029;52.198;5.422;2023-08-30T00:50:11;100706.88;;;13.59;80.60
17438;BME280;72029;52.198;5.422;2023-08-30T00:52:40;100700.47;;;13.69;80.66
17438;BME280;72029;52.198;5.422;2023-08-30T00:55:10;100706.56;;;13.79;79.93
17438;BME280;72029;52.198;5.422;2023-08-30T00:57:39;100701.00;;;13.73;79.91
17438;BME280;72029;52.198;5.422;2023-08-30T01:00:11;100697.88;;;13.77;80.09
17438;BME280;72029;52.198;5.422;2023-08-30T01:02:40;100701.59;;;13.67;80.36
17438;BME280;72029;52.198;5.422;2023-08-30T01:05:13;100696.66;;;13.72;80.31
17438;BME280;72029;52.198;5.422;2023-08-30T01:07:43;100691.63;;;13.86;79.59
17438;BME280;72029;52.198;5.422;2023-08-30T01:10:12;100694.84;;;13.72;79.90
17438;BME280;72029;52.198;5.422;2023-08-30T01:12:48;100689.66;;;13.88;79.61
17438;BME280;72029;52.198;5.422;2023-08-30T01:15:20;100697.00;;;13.94;78.79
17438;BME280;72029;52.198;5.422;2023-08-30T01:17:52;100698.53;;;14.15;77.98
17438;BME280;72029;52.198;5.422;2023-08-30T01:20:26;100696.06;;;14.21;77.30
17438;BME280;72029;52.198;5.422;2023-08-30T01:23:03;100690.66;;;14.13;77.48
17438;BME280;72029;52.198;5.422;2023-08-30T01:25:47;100689.06;;;14.20;77.31
17438;BME280;72029;52.198;5.422;2023-08-30T01:28:23;100693.88;;;14.17;76.33
17438;BME280;72029;52.198;5.422;2023-08-30T01:30:53;100681.63;;;14.06;77.09
17438;BME280;72029;52.198;5.422;2023-08-30T01:33:24;100691.25;;;14.25;76.60
17438;BME280;72029;52.198;5.422;2023-08-30T01:35:55;100689.91;;;14.21;76.78
17438;BME280;72029;52.198;5.422;2023-08-30T01:38:26;100681.84;;;14.30;76.06
17438;BME280;72029;52.198;5.422;2023-08-30T01:40:58;100684.16;;;14.33;76.33
17438;BME280;72029;52.198;5.422;2023-08-30T01:43:32;100674.78;;;14.29;76.27
17438;BME280;72029;52.198;5.422;2023-08-30T01:46:03;100670.56;;;14.19;76.86
17438;BME280;72029;52.198;5.422;2023-08-30T01:48:35;100675.00;;;14.36;76.36
17438;BME280;72029;52.198;5.422;2023-08-30T01:51:06;100671.28;;;14.29;76.17
17438;BME280;72029;52.198;5.422;2023-08-30T01:53:36;100661.56;;;14.20;76.58
17438;BME280;72029;52.198;5.422;2023-08-30T01:56:05;100658.56;;;14.15;76.95
17438;BME280;72029;52.198;5.422;2023-08-30T01:58:37;100657.16;;;14.11;76.82
17438;BME280;72029;52.198;5.422;2023-08-30T02:01:06;100659.38;;;14.15;76.62
17438;BME280;72029;52.198;5.422;2023-08-30T02:03:35;100665.63;;;14.06;76.99
17438;BME280;72029;52.198;5.422;2023-08-30T02:06:09;100664.53;;;13.91;77.56
17438;BME280;72029;52.198;5.422;2023-08-30T02:08:47;100668.38;;;13.97;77.61
17438;BME280;72029;52.198;5.422;2023-08-30T02:11:23;100664.78;;;14.06;77.08
17438;BME280;72029;52.198;5.422;2023-08-30T02:13:59;100663.81;;;14.07;77.52
17438;BME280;72029;52.198;5.422;2023-08-30T02:16:30;100662.56;;;14.19;76.64
17438;BME280;72029;52.198;5.422;2023-08-30T02:19:00;100662.56;;;14.19;76.50
17438;BME280;72029;52.198;5.422;2023-08-30T02:21:29;100667.34;;;13.89;77.51
17438;BME280;72029;52.198;5.422;2023-08-30T02:23:58;100656.03;;;14.13;76.85
17438;BME280;72029;52.198;5.422;2023-08-30T02:26:27;100654.19;;;14.14;76.80
17438;BME280;72029;52.198;5.422;2023-08-30T02:28:58;100651.44;;;14.23;76.32
17438;BME280;72029;52.198;5.422;2023-08-30T02:31:28;100644.03;;;14.17;76.67
17438;BME280;72029;52.198;5.422;2023-08-30T02:33:57;100647.09;;;14.22;75.94
17438;BME280;72029;52.198;5.422;2023-08-30T02:36:28;100643.84;;;14.11;76.31
17438;BME280;72029;52.198;5.422;2023-08-30T02:38:57;100642.56;;;14.15;75.73
17438;BME280;72029;52.198;5.422;2023-08-30T02:41:26;100633.25;;;14.19;76.00
17438;BME280;72029;52.198;5.422;2023-08-30T02:43:54;100635.53;;;14.14;76.07
17438;BME280;72029;52.198;5.422;2023-08-30T02:46:26;100636.50;;;14.05;76.17
17438;BME280;72029;52.198;5.422;2023-08-30T02:48:55;100632.81;;;14.06;76.68
17438;BME280;72029;52.198;5.422;2023-08-30T02:51:24;100626.97;;;14.02;76.76
17438;BME280;72029;52.198;5.422;2023-08-30T02:53:53;100625.84;;;14.05;76.87
17438;BME280;72029;52.198;5.422;2023-08-30T02:56:22;100625.94;;;14.21;76.28
17438;BME280;72029;52.198;5.422;2023-08-30T02:58:51;100620.44;;;14.22;76.06
17438;BME280;72029;52.198;5.422;2023-08-30T03:01:20;100615.88;;;14.32;75.66
17438;BME280;72029;52.198;5.422;2023-08-30T03:03:51;100613.25;;;13.89;76.84
17438;BME280;72029;52.198;5.422;2023-08-30T03:06:20;100614.03;;;14.07;75.89
17438;BME280;72029;52.198;5.422;2023-08-30T03:08:49;100600.50;;;14.01;76.09
17438;BME280;72029;52.198;5.422;2023-08-30T03:11:18;100605.41;;;13.87;75.75
17438;BME280;72029;52.198;5.422;2023-08-30T03:13:47;100599.88;;;14.07;75.27
17438;BME280;72029;52.198;5.422;2023-08-30T03:16:17;100604.44;;;13.97;75.60
17438;BME280;72029;52.198;5.422;2023-08-30T03:18:47;100604.31;;;13.98;74.78
17438;BME280;72029;52.198;5.422;2023-08-30T03:21:19;100598.88;;;13.82;75.24
17438;BME280;72029;52.198;5.422;2023-08-30T03:23:48;100600.91;;;13.88;75.63
17438;BME280;72029;52.198;5.422;2023-08-30T03:26:17;100595.78;;;13.94;75.11
17438;BME280;72029;52.198;5.422;2023-08-30T03:28:46;100597.50;;;14.04;75.22
17438;BME280;72029;52.198;5.422;2023-08-30T03:31:17;100593.47;;;13.74;75.85
17438;BME280;72029;52.198;5.422;2023-08-30T03:33:47;100581.28;;;13.63;76.46
17438;BME280;72029;52.198;5.422;2023-08-30T03:36:19;100584.44;;;13.67;76.59
17438;BME280;72029;52.198;5.422;2023-08-30T03:38:48;100575.56;;;13.58;76.19
17438;BME280;72029;52.198;5.422;2023-08-30T03:41:18;100572.84;;;13.50;76.96
17438;BME280;72029;52.198;5.422;2023-08-30T03:43:47;100573.59;;;13.60;76.82
17438;BME280;72029;52.198;5.422;2023-08-30T03:46:16;100571.97;;;13.67;76.58
17438;BME280;72029;52.198;5.422;2023-08-30T03:48:45;100565.59;;;13.60;76.40
17438;BME280;72029;52.198;5.422;2023-08-30T03:51:14;100559.91;;;13.55;76.69
17438;BME280;72029;52.198;5.422;2023-08-30T03:53:45;100550.28;;;13.37;77.19
17438;BME280;72029;52.198;5.422;2023-08-30T03:56:14;100553.94;;;13.36;77.92
17438;BME280;72029;52.198;5.422;2023-08-30T03:58:44;100558.72;;;13.32;78.08
17438;BME280;72029;52.198;5.422;2023-08-30T04:01:13;100556.59;;;13.18;78.23
17438;BME280;72029;52.198;5.422;2023-08-30T04:03:42;100556.91;;;13.15;78.26
17438;BME280;72029;52.198;5.422;2023-08-30T04:06:11;100541.84;;;13.06;78.79
17438;BME280;72029;52.198;5.422;2023-08-30T04:08:40;100544.06;;;13.10;78.59
17438;BME280;72029;52.198;5.422;2023-08-30T04:11:12;100536.44;;;12.98;78.81
17438;BME280;72029;52.198;5.422;2023-08-30T04:13:41;100538.41;;;12.96;78.72
17438;BME280;72029;52.198;5.422;2023-08-30T04:16:11;100528.25;;;12.91;78.34
17438;BME280;72029;52.198;5.422;2023-08-30T04:18:40;100530.44;;;12.96;78.64
17438;BME280;72029;52.198;5.422;2023-08-30T04:21:08;100533.09;;;12.96;78.17
17438;BME280;72029;52.198;5.422;2023-08-30T04:23:38;100536.28;;;12.99;78.11
17438;BME280;72029;52.198;5.422;2023-08-30T04:26:07;100535.44;;;12.99;77.52
17438;BME280;72029;52.198;5.422;2023-08-30T04:28:38;100535.97;;;13.02;78.13
17438;BME280;72029;52.198;5.422;2023-08-30T04:31:07;100541.31;;;13.02;77.68
17438;BME280;72029;52.198;5.422;2023-08-30T04:33:36;100544.50;;;13.06;77.82
17438;BME280;72029;52.198;5.422;2023-08-30T04:36:05;100541.81;;;12.88;78.48
17438;BME280;72029;52.198;5.422;2023-08-30T04:38:34;100548.91;;;12.97;77.83
17438;BME280;72029;52.198;5.422;2023-08-30T04:41:03;100540.13;;;12.87;77.74
17438;BME280;72029;52.198;5.422;2023-08-30T04:43:32;100533.84;;;12.88;77.91
17438;BME280;72029;52.198;5.422;2023-08-30T04:46:04;100531.25;;;12.96;77.45
17438;BME280;72029;52.198;5.422;2023-08-30T04:48:33;100533.63;;;12.99;77.29
17438;BME280;72029;52.198;5.422;2023-08-30T04:51:03;100532.47;;;13.02;77.15
17438;BME280;72029;52.198;5.422;2023-08-30T04:53:32;100529.22;;;13.08;76.95
17438;BME280;72029;52.198;5.422;2023-08-30T04:56:11;100524.38;;;13.21;76.15
17438;BME280;72029;52.198;5.422;2023-08-30T04:58:41;100521.53;;;12.87;76.90
17438;BME280;72029;52.198;5.422;2023-08-30T05:01:12;100519.81;;;12.96;77.20
17438;BME280;72029;52.198;5.422;2023-08-30T05:03:41;100518.75;;;12.89;77.19
17438;BME280;72029;52.198;5.422;2023-08-30T05:06:10;100518.34;;;13.01;76.77
17438;BME280;72029;52.198;5.422;2023-08-30T05:08:42;100514.31;;;12.97;77.18
17438;BME280;72029;52.198;5.422;2023-08-30T05:11:11;100514.16;;;12.99;77.16
17438;BME280;72029;52.198;5.422;2023-08-30T05:13:40;100509.16;;;12.96;77.24
17438;BME280;72029;52.198;5.422;2023-08-30T05:16:11;100488.78;;;13.04;77.13
17438;BME280;72029;52.198;5.422;2023-08-30T05:18:40;100494.25;;;13.03;77.28
17438;BME280;72029;52.198;5.422;2023-08-30T05:21:09;100494.41;;;13.01;77.33
17438;BME280;72029;52.198;5.422;2023-08-30T05:23:38;100481.19;;;12.92;77.95
17438;BME280;72029;52.198;5.422;2023-08-30T05:26:08;100477.47;;;12.85;78.43
17438;BME280;72029;52.198;5.422;2023-08-30T05:28:38;100483.78;;;12.84;78.51
17438;BME280;72029;52.198;5.422;2023-08-30T05:31:07;100488.03;;;12.77;78.60
17438;BME280;72029;52.198;5.422;2023-08-30T05:33:39;100492.81;;;12.73;79.02
17438;BME280;72029;52.198;5.422;2023-08-30T05:36:08;100488.19;;;12.93;78.74
17438;BME280;72029;52.198;5.422;2023-08-30T05:38:37;100500.25;;;13.05;78.25
17438;BME280;72029;52.198;5.422;2023-08-30T05:41:07;100502.03;;;13.14;77.71
17438;BME280;72029;52.198;5.422;2023-08-30T05:43:35;100498.06;;;13.18;77.47
17438;BME280;72029;52.198;5.422;2023-08-30T05:46:04;100496.53;;;13.33;76.98
17438;BME280;72029;52.198;5.422;2023-08-30T05:48:43;100501.31;;;13.30;77.23
17438;BME280;72029;52.198;5.422;2023-08-30T05:51:12;100507.06;;;13.17;77.52
17438;BME280;72029;52.198;5.422;2023-08-30T05:53:40;100510.91;;;13.22;77.50
17438;BME280;72029;52.198;5.422;2023-08-30T05:56:09;100503.47;;;13.26;77.47
17438;BME280;72029;52.198;5.422;2023-08-30T05:58:38;100498.44;;;13.23;77.62
17438;BME280;72029;52.198;5.422;2023-08-30T06:01:08;100491.13;;;13.43;76.51
17438;BME280;72029;52.198;5.422;2023-08-30T06:03:37;100506.72;;;13.63;76.28
17438;BME280;72029;52.198;5.422;2023-08-30T06:06:08;100498.72;;;13.63;76.43
17438;BME280;72029;52.198;5.422;2023-08-30T06:08:37;100507.50;;;13.81;75.50
17438;BME280;72029;52.198;5.422;2023-08-30T06:11:06;100491.94;;;14.03;75.14
17438;BME280;72029;52.198;5.422;2023-08-30T06:13:35;100498.41;;;13.66;76.22
17438;BME280;72029;52.198;5.422;2023-08-30T06:16:04;100504.28;;;13.52;76.54
17438;BME280;72029;52.198;5.422;2023-08-30T06:18:33;100494.50;;;13.53;76.94
17438;BME280;72029;52.198;5.422;2023-08-30T06:21:03;100484.19;;;13.83;76.16
17438;BME280;72029;52.198;5.422;2023-08-30T06:23:38;100476.78;;;13.69;76.51
17438;BME280;72029;52.198;5.422;2023-08-30T06:26:07;100470.13;;;13.65;78.23
17438;BME280;72029;52.198;5.422;2023-08-30T06:28:36;100470.97;;;13.40;79.39
17438;BME280;72029;52.198;5.422;2023-08-30T06:31:04;100469.84;;;13.25;80.74
17438;BME280;72029;52.198;5.422;2023-08-30T06:33:33;100472.69;;;13.06;81.60
17438;BME280;72029;52.198;5.422;2023-08-30T06:36:05;100478.84;;;13.06;83.51
17438;BME280;72029;52.198;5.422;2023-08-30T06:38:36;100465.09;;;13.11;83.82
17438;BME280;72029;52.198;5.422;2023-08-30T06:41:05;100467.50;;;13.22;84.42
17438;BME280;72029;52.198;5.422;2023-08-30T06:43:34;100478.13;;;13.22;84.66
17438;BME280;72029;52.198;5.422;2023-08-30T06:46:03;100482.56;;;12.96;86.11
17438;BME280;72029;52.198;5.422;2023-08-30T06:48:32;100474.81;;;12.67;88.22
17438;BME280;72029;52.198;5.422;2023-08-30T06:51:01;100469.28;;;12.61;88.94
17438;BME280;72029;52.198;5.422;2023-08-30T06:53:30;100477.53;;;12.57;89.18
17438;BME280;72029;52.198;5.422;2023-08-30T06:56:02;100469.66;;;12.83;89.73
17438;BME280;72029;52.198;5.422;2023-08-30T06:58:31;100466.16;;;12.83;88.97
17438;BME280;72029;52.198;5.422;2023-08-30T07:01:00;100465.53;;;12.71;89.30
17438;BME280;72029;52.198;5.422;2023-08-30T07:03:29;100464.16;;;12.85;90.03
17438;BME280;72029;52.198;5.422;2023-08-30T07:05:58;100442.38;;;12.81;89.70
17438;BME280;72029;52.198;5.422;2023-08-30T07:08:27;100450.09;;;12.92;90.09
17438;BME280;72029;52.198;5.422;2023-08-30T07:10:56;100453.22;;;12.88;90.54
17438;BME280;72029;52.198;5.422;2023-08-30T07:13:28;100460.38;;;13.05;90.70
17438;BME280;72029;52.198;5.422;2023-08-30T07:15:57;100450.03;;;13.02;90.37
17438;BME280;72029;52.198;5.422;2023-08-30T07:18:26;100449.19;;;13.01;90.43
17438;BME280;72029;52.198;5.422;2023-08-30T07:20:55;100439.16;;;13.13;90.92
17438;BME280;72029;52.198;5.422;2023-08-30T07:23:24;100447.31;;;13.11;91.53
17438;BME280;72029;52.198;5.422;2023-08-30T07:25:53;100439.91;;;13.23;91.50
17438;BME280;72029;52.198;5.422;2023-08-30T07:28:22;100442.25;;;13.26;91.70
17438;BME280;72029;52.198;5.422;2023-08-30T07:31:02;100439.97;;;13.31;91.57
17438;BME280;72029;52.198;5.422;2023-08-30T07:33:32;100440.31;;;13.36;91.04
17438;BME280;72029;52.198;5.422;2023-08-30T07:36:01;100429.72;;;13.44;91.06
17438;BME280;72029;52.198;5.422;2023-08-30T07:38:31;100427.75;;;13.20;91.77
17438;BME280;72029;52.198;5.422;2023-08-30T07:41:01;100425.03;;;13.38;92.50
17438;BME280;72029;52.198;5.422;2023-08-30T07:43:30;100419.75;;;13.46;91.90
17438;BME280;72029;52.198;5.422;2023-08-30T07:46:02;100415.41;;;13.19;92.31
17438;BME280;72029;52.198;5.422;2023-08-30T07:48:31;100411.03;;;13.36;93.10
17438;BME280;72029;52.198;5.422;2023-08-30T07:51:00;100407.44;;;13.45;92.92
17438;BME280;72029;52.198;5.422;2023-08-30T07:53:29;100407.97;;;13.49;92.69
17438;BME280;72029;52.198;5.422;2023-08-30T07:55:57;100405.06;;;13.68;92.52
17438;BME280;72029;52.198;5.422;2023-08-30T07:58:26;100399.38;;;13.63;92.59
17438;BME280;72029;52.198;5.422;2023-08-30T08:00:55;100396.06;;;13.69;92.36
17438;BME280;72029;52.198;5.422;2023-08-30T08:03:28;100391.16;;;13.82;92.11
17438;BME280;72029;52.198;5.422;2023-08-30T08:05:59;100379.53;;;13.57;91.89
17438;BME280;72029;52.198;5.422;2023-08-30T08:08:28;100383.75;;;13.68;92.50
17438;BME280;72029;52.198;5.422;2023-08-30T08:10:58;100378.22;;;13.61;92.48
17438;BME280;72029;52.198;5.422;2023-08-30T08:13:27;100380.56;;;13.56;92.95
17438;BME280;72029;52.198;5.422;2023-08-30T08:15:57;100373.75;;;13.62;93.36
17438;BME280;72029;52.198;5.422;2023-08-30T08:18:28;100354.13;;;13.71;92.96
17438;BME280;72029;52.198;5.422;2023-08-30T08:20:57;100337.34;;;13.78;93.36
17438;BME280;72029;52.198;5.422;2023-08-30T08:23:26;100354.63;;;13.66;93.65
17438;BME280;72029;52.198;5.422;2023-08-30T08:25:59;100366.81;;;13.77;93.36
17438;BME280;72029;52.198;5.422;2023-08-30T08:28:28;100369.63;;;13.75;92.72
17438;BME280;72029;52.198;5.422;2023-08-30T08:30:57;100372.81;;;13.79;93.22
17438;BME280;72029;52.198;5.422;2023-08-30T08:33:29;100384.13;;;13.81;94.01
17438;BME280;72029;52.198;5.422;2023-08-30T08:35:58;100376.69;;;13.92;93.90
17438;BME280;72029;52.198;5.422;2023-08-30T08:38:27;100373.66;;;13.87;93.58
17438;BME280;72029;52.198;5.422;2023-08-30T08:41:05;100377.72;;;14.00;93.78
17438;BME280;72029;52.198;5.422;2023-08-30T08:43:35;100380.06;;;14.03;93.28
17438;BME280;72029;52.198;5.422;2023-08-30T08:46:07;100371.22;;;14.02;93.01
17438;BME280;72029;52.198;5.422;2023-08-30T08:48:45;100367.41;;;14.13;92.53
17438;BME280;72029;52.198;5.422;2023-08-30T08:51:15;100371.75;;;14.14;93.11
17438;BME280;72029;52.198;5.422;2023-08-30T08:53:45;100366.75;;;14.19;92.64
17438;BME280;72029;52.198;5.422;2023-08-30T08:56:14;100367.25;;;14.22;93.03
17438;BME280;72029;52.198;5.422;2023-08-30T08:58:44;100364.06;;;14.03;92.83
17438;BME280;72029;52.198;5.422;2023-08-30T09:01:14;100368.72;;;14.01;92.75
17438;BME280;72029;52.198;5.422;2023-08-30T09:03:46;100371.72;;;13.98;94.15
17438;BME280;72029;52.198;5.422;2023-08-30T09:06:16;100363.44;;;14.17;93.65
17438;BME280;72029;52.198;5.422;2023-08-30T09:08:45;100361.81;;;14.32;93.67
17438;BME280;72029;52.198;5.422;2023-08-30T09:11:14;100361.59;;;14.25;93.46
17438;BME280;72029;52.198;5.422;2023-08-30T09:13:43;100359.75;;;14.10;93.32
17438;BME280;72029;52.198;5.422;2023-08-30T09:16:13;100348.78;;;14.21;93.23
17438;BME280;72029;52.198;5.422;2023-08-30T09:18:45;100364.41;;;14.08;93.72
17438;BME280;72029;52.198;5.422;2023-08-30T09:21:13;100358.22;;;13.99;94.26
17438;BME280;72029;52.198;5.422;2023-08-30T09:23:43;100349.38;;;13.99;94.69
17438;BME280;72029;52.198;5.422;2023-08-30T09:26:12;100349.44;;;14.15;95.49
17438;BME280;72029;52.198;5.422;2023-08-30T09:28:44;100346.47;;;14.26;94.62
17438;BME280;72029;52.198;5.422;2023-08-30T09:31:18;100351.16;;;14.32;93.96
17438;BME280;72029;52.198;5.422;2023-08-30T09:33:50;100352.16;;;14.47;94.09
17438;BME280;72029;52.198;5.422;2023-08-30T09:36:22;100357.16;;;14.58;93.26
17438;BME280;72029;52.198;5.422;2023-08-30T09:38:51;100347.50;;;14.65;92.80
17438;BME280;72029;52.198;5.422;2023-08-30T09:41:25;100338.84;;;14.47;93.20
17438;BME280;72029;52.198;5.422;2023-08-30T09:43:54;100345.00;;;14.72;92.94
17438;BME280;72029;52.198;5.422;2023-08-30T09:46:24;100340.47;;;14.64;92.91
17438;BME280;72029;52.198;5.422;2023-08-30T09:48:57;100332.00;;;14.52;92.81
17438;BME280;72029;52.198;5.422;2023-08-30T09:51:26;100335.50;;;14.69;93.03
17438;BME280;72029;52.198;5.422;2023-08-30T09:54:01;100323.81;;;14.62;93.66
17438;BME280;72029;52.198;5.422;2023-08-30T09:56:35;100326.81;;;14.59;93.53
17438;BME280;72029;52.198;5.422;2023-08-30T09:59:05;100326.84;;;14.75;93.55
17438;BME280;72029;52.198;5.422;2023-08-30T10:01:37;100331.50;;;14.49;93.56
17438;BME280;72029;52.198;5.422;2023-08-30T10:04:10;100322.16;;;14.53;94.06
17438;BME280;72029;52.198;5.422;2023-08-30T10:06:40;100324.47;;;14.80;93.82
17438;BME280;72029;52.198;5.422;2023-08-30T10:09:09;100329.81;;;14.64;93.78
17438;BME280;72029;52.198;5.422;2023-08-30T10:11:39;100337.16;;;14.78;94.45
17438;BME280;72029;52.198;5.422;2023-08-30T10:14:08;100335.28;;;15.03;94.28
17438;BME280;72029;52.198;5.422;2023-08-30T10:16:42;100327.75;;;15.14;92.57
17438;BME280;72029;52.198;5.422;2023-08-30T10:19:16;100332.06;;;15.15;92.15
17438;BME280;72029;52.198;5.422;2023-08-30T10:21:47;100333.38;;;15.19;92.46
17438;BME280;72029;52.198;5.422;2023-08-30T10:24:19;100335.44;;;15.09;92.57
17438;BME280;72029;52.198;5.422;2023-08-30T10:26:50;100335.06;;;15.12;92.05
17438;BME280;72029;52.198;5.422;2023-08-30T10:29:21;100338.72;;;15.27;92.81
17438;BME280;72029;52.198;5.422;2023-08-30T10:31:50;100331.63;;;15.43;91.18
17438;BME280;72029;52.198;5.422;2023-08-30T10:34:21;100336.56;;;15.70;90.81
17438;BME280;72029;52.198;5.422;2023-08-30T10:36:59;100329.00;;;16.35;89.78
17438;BME280;72029;52.198;5.422;2023-08-30T10:39:34;100332.75;;;16.86;86.15
17438;BME280;72029;52.198;5.422;2023-08-30T10:42:15;100341.09;;;17.20;85.29
17438;BME280;72029;52.198;5.422;2023-08-30T10:44:50;100330.66;;;17.10;80.94
17438;BME280;72029;52.198;5.422;2023-08-30T10:47:22;100329.81;;;17.24;81.17
17438;BME280;72029;52.198;5.422;2023-08-30T10:49:55;100334.66;;;17.58;80.99
17438;BME280;72029;52.198;5.422;2023-08-30T10:52:26;100341.00;;;17.28;79.17
17438;BME280;72029;52.198;5.422;2023-08-30T10:55:05;100347.81;;;17.45;77.67
17438;BME280;72029;52.198;5.422;2023-08-30T10:57:34;100357.25;;;17.70;75.10
17438;BME280;72029;52.198;5.422;2023-08-30T11:00:11;100364.34;;;17.92;71.89
17438;BME280;72029;52.198;5.422;2023-08-30T11:02:45;100365.28;;;18.21;73.19
17438;BME280;72029;52.198;5.422;2023-08-30T11:05:20;100353.25;;;17.95;70.22
17438;BME280;72029;52.198;5.422;2023-08-30T11:07:50;100368.56;;;18.01;68.92
17438;BME280;72029;52.198;5.422;2023-08-30T11:10:21;100374.91;;;17.79;68.21
17438;BME280;72029;52.198;5.422;2023-08-30T11:12:50;100368.94;;;17.63;68.20
17438;BME280;72029;52.198;5.422;2023-08-30T11:15:19;100364.66;;;18.19;68.22
17438;BME280;72029;52.198;5.422;2023-08-30T11:17:48;100360.25;;;17.96;67.19
17438;BME280;72029;52.198;5.422;2023-08-30T11:20:20;100368.94;;;17.98;67.21
17438;BME280;72029;52.198;5.422;2023-08-30T11:22:49;100361.81;;;18.62;66.51
17438;BME280;72029;52.198;5.422;2023-08-30T11:25:19;100369.56;;;18.51;65.25
17438;BME280;72029;52.198;5.422;2023-08-30T11:27:48;100374.69;;;19.57;62.37
17438;BME280;72029;52.198;5.422;2023-08-30T11:30:17;100378.69;;;20.21;61.15
17438;BME280;72029;52.198;5.422;2023-08-30T11:32:46;100373.41;;;20.93;59.41
17438;BME280;72029;52.198;5.422;2023-08-30T11:35:21;100381.00;;;19.36;61.98
17438;BME280;72029;52.198;5.422;2023-08-30T11:37:50;100372.13;;;18.23;65.24
17438;BME280;72029;52.198;5.422;2023-08-30T11:40:20;100379.81;;;18.47;66.23
17438;BME280;72029;52.198;5.422;2023-08-30T11:42:50;100382.94;;;18.93;64.57
17438;BME280;72029;52.198;5.422;2023-08-30T11:45:19;100374.88;;;18.93;64.73
17438;BME280;72029;52.198;5.422;2023-08-30T11:47:48;100377.72;;;19.40;63.68
17438;BME280;72029;52.198;5.422;2023-08-30T11:50:21;100371.41;;;19.61;61.16
17438;BME280;72029;52.198;5.422;2023-08-30T11:52:50;100350.88;;;19.94;61.28
17438;BME280;72029;52.198;5.422;2023-08-30T11:55:21;100354.19;;;21.86;57.59
17438;BME280;72029;52.198;5.422;2023-08-30T11:57:50;100360.81;;;21.20;57.12
17438;BME280;72029;52.198;5.422;2023-08-30T12:00:22;100367.94;;;22.54;52.78
17438;BME280;72029;52.198;5.422;2023-08-30T12:02:52;100361.81;;;20.79;56.03
17438;BME280;72029;52.198;5.422;2023-08-30T12:05:23;100360.34;;;22.38;53.75
17438;BME280;72029;52.198;5.422;2023-08-30T12:07:52;100357.97;;;22.23;52.11
17438;BME280;72029;52.198;5.422;2023-08-30T12:10:21;100366.13;;;21.53;52.49
17438;BME280;72029;52.198;5.422;2023-08-30T12:12:50;100345.88;;;20.71;54.67
17438;BME280;72029;52.198;5.422;2023-08-30T12:15:19;100372.53;;;21.52;53.13
17438;BME280;72029;52.198;5.422;2023-08-30T12:17:48;100366.88;;;22.24;50.41
17438;BME280;72029;52.198;5.422;2023-08-30T12:20:18;100383.22;;;22.73;51.06
17438;BME280;72029;52.198;5.422;2023-08-30T12:22:52;100354.16;;;20.63;52.44
17438;BME280;72029;52.198;5.422;2023-08-30T12:25:22;100374.47;;;20.72;50.88
17438;BME280;72029;52.198;5.422;2023-08-30T12:27:52;100370.31;;;20.44;51.89
17438;BME280;72029;52.198;5.422;2023-08-30T12:30:21;100382.16;;;20.95;50.16
17438;BME280;72029;52.198;5.422;2023-08-30T12:32:50;100387.31;;;21.36;47.36
17438;BME280;72029;52.198;5.422;2023-08-30T12:35:28;100389.22;;;21.99;46.45
17438;BME280;72029;52.198;5.422;2023-08-30T12:38:00;100388.75;;;22.47;47.08
17438;BME280;72029;52.198;5.422;2023-08-30T12:40:29;100384.28;;;22.97;43.68
17438;BME280;72029;52.198;5.422;2023-08-30T12:42:58;100397.41;;;23.79;42.29
17438;BME280;72029;52.198;5.422;2023-08-30T12:45:27;100402.84;;;22.18;44.88
17438;BME280;72029;52.198;5.422;2023-08-30T12:47:56;100387.53;;;22.43;45.51
17438;BME280;72029;52.198;5.422;2023-08-30T12:50:26;100393.75;;;22.05;45.28
17438;BME280;72029;52.198;5.422;2023-08-30T12:52:54;100401.75;;;20.30;47.21
17438;BME280;72029;52.198;5.422;2023-08-30T12:55:26;100405.59;;;20.21;48.75
17438;BME280;72029;52.198;5.422;2023-08-30T12:57:56;100403.53;;;19.69;50.17
17438;BME280;72029;52.198;5.422;2023-08-30T13:00:25;100401.63;;;20.04;50.00
17438;BME280;72029;52.198;5.422;2023-08-30T13:02:55;100414.53;;;20.28;49.85
17438;BME280;72029;52.198;5.422;2023-08-30T13:05:24;100404.16;;;21.95;46.55